sensor_id;sensor_type;location;lat;lon;timestamp;temperature;humidity
14873;DHT22;7528;48.576;19.122;2022-08-01T00:02:51;18.50;85.30
14873;DHT22;7528;48.576;19.122;2022-08-01T00:07:54;18.50;85.60
14873;DHT22;7528;48.576;19.122;2022-08-01T00:12:58;18.40;85.60
14873;DHT22;7528;48.576;19.122;2022-08-01T00:18:03;18.40;85.60
14873;DHT22;7528;48.576;19.122;2022-08-01T00:23:06;18.30;85.30
14873;DHT22;7528;48.576;19.122;2022-08-01T00:28:09;18.40;85.00
14873;DHT22;7528;48.576;19.122;2022-08-01T00:33:16;18.20;85.90
14873;DHT22;7528;48.576;19.122;2022-08-01T00:38:20;18.20;85.60
14873;DHT22;7528;48.576;19.122;2022-08-01T00:43:23;18.30;85.90
14873;DHT22;7528;48.576;19.122;2022-08-01T00:48:27;18.20;84.90
14873;DHT22;7528;48.576;19.122;2022-08-01T00:53:31;18.20;85.00
14873;DHT22;7528;48.576;19.122;2022-08-01T00:58:34;18.10;85.10
14873;DHT22;7528;48.576;19.122;2022-08-01T01:03:39;18.10;85.30
14873;DHT22;7528;48.576;19.122;2022-08-01T01:08:48;18.00;85.40
14873;DHT22;7528;48.576;19.122;2022-08-01T01:14:04;18.00;85.40
14873;DHT22;7528;48.576;19.122;2022-08-01T01:19:16;18.00;85.60
14873;DHT22;7528;48.576;19.122;2022-08-01T01:24:31;17.90;85.50
14873;DHT22;7528;48.576;19.122;2022-08-01T01:29:44;17.90;85.40
14873;DHT22;7528;48.576;19.122;2022-08-01T01:34:50;17.90;85.10
14873;DHT22;7528;48.576;19.122;2022-08-01T01:39:54;17.90;85.10
14873;DHT22;7528;48.576;19.122;2022-08-01T01:45:00;17.70;85.00
14873;DHT22;7528;48.576;19.122;2022-08-01T01:50:08;17.70;84.80
14873;DHT22;7528;48.576;19.122;2022-08-01T01:55:15;17.70;85.40
14873;DHT22;7528;48.576;19.122;2022-08-01T02:00:22;17.60;85.30
14873;DHT22;7528;48.576;19.122;2022-08-01T02:05:27;17.60;85.60
14873;DHT22;7528;48.576;19.122;2022-08-01T02:10:33;17.60;85.70
14873;DHT22;7528;48.576;19.122;2022-08-01T02:15:39;17.50;85.80
14873;DHT22;7528;48.576;19.122;2022-08-01T02:20:43;17.50;86.10
14873;DHT22;7528;48.576;19.122;2022-08-01T02:25:50;17.50;86.10
14873;DHT22;7528;48.576;19.122;2022-08-01T02:31:01;17.50;86.60
14873;DHT22;7528;48.576;19.122;2022-08-01T02:36:06;17.40;86.70
14873;DHT22;7528;48.576;19.122;2022-08-01T02:41:12;17.40;86.90
14873;DHT22;7528;48.576;19.122;2022-08-01T02:46:21;17.40;86.90
14873;DHT22;7528;48.576;19.122;2022-08-01T02:51:26;17.40;86.80
14873;DHT22;7528;48.576;19.122;2022-08-01T02:56:30;17.30;86.60
14873;DHT22;7528;48.576;19.122;2022-08-01T03:01:40;17.30;86.70
14873;DHT22;7528;48.576;19.122;2022-08-01T03:06:47;17.30;86.10
14873;DHT22;7528;48.576;19.122;2022-08-01T03:11:51;17.30;86.10
14873;DHT22;7528;48.576;19.122;2022-08-01T03:16:58;17.30;85.70
14873;DHT22;7528;48.576;19.122;2022-08-01T03:22:06;17.20;86.10
14873;DHT22;7528;48.576;19.122;2022-08-01T03:27:12;17.20;86.40
14873;DHT22;7528;48.576;19.122;2022-08-01T03:32:19;17.20;86.80
14873;DHT22;7528;48.576;19.122;2022-08-01T03:37:25;17.20;86.70
14873;DHT22;7528;48.576;19.122;2022-08-01T03:42:32;17.20;86.30
14873;DHT22;7528;48.576;19.122;2022-08-01T03:47:38;17.20;86.50
14873;DHT22;7528;48.576;19.122;2022-08-01T03:52:46;17.20;86.40
14873;DHT22;7528;48.576;19.122;2022-08-01T03:57:52;17.20;86.70
14873;DHT22;7528;48.576;19.122;2022-08-01T04:02:57;17.20;86.90
14873;DHT22;7528;48.576;19.122;2022-08-01T04:08:01;17.20;87.00
14873;DHT22;7528;48.576;19.122;2022-08-01T04:13:05;17.20;87.20
14873;DHT22;7528;48.576;19.122;2022-08-01T04:18:09;17.20;87.40
14873;DHT22;7528;48.576;19.122;2022-08-01T04:23:13;17.30;87.90
14873;DHT22;7528;48.576;19.122;2022-08-01T04:28:19;17.30;88.30
14873;DHT22;7528;48.576;19.122;2022-08-01T04:33:27;17.40;88.30
14873;DHT22;7528;48.576;19.122;2022-08-01T04:38:34;17.30;88.40
14873;DHT22;7528;48.576;19.122;2022-08-01T04:43:38;17.40;88.80
14873;DHT22;7528;48.576;19.122;2022-08-01T04:48:44;17.40;88.90
14873;DHT22;7528;48.576;19.122;2022-08-01T04:53:49;17.50;88.50
14873;DHT22;7528;48.576;19.122;2022-08-01T04:58:53;17.60;88.50
14873;DHT22;7528;48.576;19.122;2022-08-01T05:04:11;17.60;88.60
14873;DHT22;7528;48.576;19.122;2022-08-01T05:09:14;17.60;88.60
14873;DHT22;7528;48.576;19.122;2022-08-01T05:14:18;17.60;89.00
14873;DHT22;7528;48.576;19.122;2022-08-01T05:19:22;17.70;89.10
14873;DHT22;7528;48.576;19.122;2022-08-01T05:24:26;17.70;89.20
14873;DHT22;7528;48.576;19.122;2022-08-01T05:29:30;17.80;90.40
14873;DHT22;7528;48.576;19.122;2022-08-01T05:34:35;17.90;90.20
14873;DHT22;7528;48.576;19.122;2022-08-01T05:39:38;18.00;90.60
14873;DHT22;7528;48.576;19.122;2022-08-01T05:44:42;18.00;90.50
14873;DHT22;7528;48.576;19.122;2022-08-01T05:49:47;18.10;90.60
14873;DHT22;7528;48.576;19.122;2022-08-01T05:54:50;18.10;90.80
14873;DHT22;7528;48.576;19.122;2022-08-01T05:59:53;18.20;91.00
14873;DHT22;7528;48.576;19.122;2022-08-01T06:04:58;18.30;90.90
14873;DHT22;7528;48.576;19.122;2022-08-01T06:10:01;18.40;90.90
14873;DHT22;7528;48.576;19.122;2022-08-01T06:15:05;18.40;90.90
14873;DHT22;7528;48.576;19.122;2022-08-01T06:20:11;18.50;91.00
14873;DHT22;7528;48.576;19.122;2022-08-01T06:25:14;18.70;91.20
14873;DHT22;7528;48.576;19.122;2022-08-01T06:30:19;18.80;91.30
14873;DHT22;7528;48.576;19.122;2022-08-01T06:35:24;19.00;91.10
14873;DHT22;7528;48.576;19.122;2022-08-01T06:40:27;19.10;90.80
14873;DHT22;7528;48.576;19.122;2022-08-01T06:45:31;19.20;90.70
14873;DHT22;7528;48.576;19.122;2022-08-01T06:50:35;19.30;90.50
14873;DHT22;7528;48.576;19.122;2022-08-01T06:55:39;19.50;90.70
14873;DHT22;7528;48.576;19.122;2022-08-01T07:00:42;19.60;90.20
14873;DHT22;7528;48.576;19.122;2022-08-01T07:05:47;19.70;89.80
14873;DHT22;7528;48.576;19.122;2022-08-01T07:10:50;19.90;90.30
14873;DHT22;7528;48.576;19.122;2022-08-01T07:15:53;20.00;90.00
14873;DHT22;7528;48.576;19.122;2022-08-01T07:20:58;20.20;90.60
14873;DHT22;7528;48.576;19.122;2022-08-01T07:26:03;20.40;89.20
14873;DHT22;7528;48.576;19.122;2022-08-01T07:31:08;20.70;90.00
14873;DHT22;7528;48.576;19.122;2022-08-01T07:36:12;20.90;89.50
14873;DHT22;7528;48.576;19.122;2022-08-01T07:41:16;21.20;89.20
14873;DHT22;7528;48.576;19.122;2022-08-01T07:46:19;21.50;88.40
14873;DHT22;7528;48.576;19.122;2022-08-01T07:51:24;21.80;86.70
14873;DHT22;7528;48.576;19.122;2022-08-01T07:56:27;22.10;75.90
14873;DHT22;7528;48.576;19.122;2022-08-01T08:01:30;22.50;70.10
14873;DHT22;7528;48.576;19.122;2022-08-01T08:06:36;22.80;67.80
14873;DHT22;7528;48.576;19.122;2022-08-01T08:11:39;23.20;63.30
14873;DHT22;7528;48.576;19.122;2022-08-01T08:16:49;23.50;64.30
14873;DHT22;7528;48.576;19.122;2022-08-01T08:21:54;23.80;61.30
14873;DHT22;7528;48.576;19.122;2022-08-01T08:26:58;24.10;58.70
14873;DHT22;7528;48.576;19.122;2022-08-01T08:32:02;24.50;56.20
14873;DHT22;7528;48.576;19.122;2022-08-01T08:37:07;24.70;56.90
14873;DHT22;7528;48.576;19.122;2022-08-01T08:42:11;25.00;56.30
14873;DHT22;7528;48.576;19.122;2022-08-01T08:47:14;25.20;56.70
14873;DHT22;7528;48.576;19.122;2022-08-01T08:52:20;25.50;54.90
14873;DHT22;7528;48.576;19.122;2022-08-01T08:57:24;25.70;54.10
14873;DHT22;7528;48.576;19.122;2022-08-01T09:02:27;25.90;53.70
14873;DHT22;7528;48.576;19.122;2022-08-01T09:07:31;26.30;52.20
14873;DHT22;7528;48.576;19.122;2022-08-01T09:12:36;26.50;52.70
14873;DHT22;7528;48.576;19.122;2022-08-01T09:17:40;26.80;52.70
14873;DHT22;7528;48.576;19.122;2022-08-01T09:22:45;26.90;50.40
14873;DHT22;7528;48.576;19.122;2022-08-01T09:27:48;27.20;49.00
14873;DHT22;7528;48.576;19.122;2022-08-01T09:33:04;27.30;47.60
14873;DHT22;7528;48.576;19.122;2022-08-01T09:38:17;27.40;50.60
14873;DHT22;7528;48.576;19.122;2022-08-01T09:43:22;27.60;44.50
14873;DHT22;7528;48.576;19.122;2022-08-01T09:48:26;27.60;46.20
14873;DHT22;7528;48.576;19.122;2022-08-01T09:53:41;27.70;43.70
14873;DHT22;7528;48.576;19.122;2022-08-01T09:58:56;27.80;45.60
14873;DHT22;7528;48.576;19.122;2022-08-01T10:04:10;28.00;45.40
14873;DHT22;7528;48.576;19.122;2022-08-01T10:09:26;28.40;44.80
14873;DHT22;7528;48.576;19.122;2022-08-01T10:14:30;28.80;46.80
14873;DHT22;7528;48.576;19.122;2022-08-01T10:19:35;29.20;42.00
14873;DHT22;7528;48.576;19.122;2022-08-01T10:24:41;29.40;41.50
14873;DHT22;7528;48.576;19.122;2022-08-01T10:29:49;29.40;44.00
14873;DHT22;7528;48.576;19.122;2022-08-01T10:34:53;29.80;42.20
14873;DHT22;7528;48.576;19.122;2022-08-01T10:39:58;30.30;39.60
14873;DHT22;7528;48.576;19.122;2022-08-01T10:45:02;30.40;38.90
14873;DHT22;7528;48.576;19.122;2022-08-01T10:50:13;30.40;39.40
14873;DHT22;7528;48.576;19.122;2022-08-01T10:55:23;30.60;38.10
14873;DHT22;7528;48.576;19.122;2022-08-01T11:00:28;30.80;37.80
14873;DHT22;7528;48.576;19.122;2022-08-01T11:05:33;30.70;37.60
14873;DHT22;7528;48.576;19.122;2022-08-01T11:10:40;30.70;38.20
14873;DHT22;7528;48.576;19.122;2022-08-01T11:15:45;30.80;38.30
14873;DHT22;7528;48.576;19.122;2022-08-01T11:20:55;31.20;37.00
14873;DHT22;7528;48.576;19.122;2022-08-01T11:26:08;31.40;37.00
14873;DHT22;7528;48.576;19.122;2022-08-01T11:31:31;31.50;37.30
14873;DHT22;7528;48.576;19.122;2022-08-01T11:36:34;31.70;36.00
14873;DHT22;7528;48.576;19.122;2022-08-01T11:41:40;31.80;37.10
14873;DHT22;7528;48.576;19.122;2022-08-01T11:46:57;31.60;35.90
14873;DHT22;7528;48.576;19.122;2022-08-01T11:52:05;31.50;35.70
14873;DHT22;7528;48.576;19.122;2022-08-01T11:57:11;31.90;36.70
14873;DHT22;7528;48.576;19.122;2022-08-01T12:02:20;32.30;36.80
14873;DHT22;7528;48.576;19.122;2022-08-01T12:07:25;32.70;36.40
14873;DHT22;7528;48.576;19.122;2022-08-01T12:12:31;32.80;34.20
14873;DHT22;7528;48.576;19.122;2022-08-01T12:17:36;32.80;34.60
14873;DHT22;7528;48.576;19.122;2022-08-01T12:22:40;32.80;33.10
14873;DHT22;7528;48.576;19.122;2022-08-01T12:27:47;32.90;33.30
14873;DHT22;7528;48.576;19.122;2022-08-01T12:32:51;33.00;33.00
14873;DHT22;7528;48.576;19.122;2022-08-01T12:37:56;33.10;33.30
14873;DHT22;7528;48.576;19.122;2022-08-01T12:43:03;33.10;33.10
14873;DHT22;7528;48.576;19.122;2022-08-01T12:48:09;33.20;33.70
14873;DHT22;7528;48.576;19.122;2022-08-01T12:53:14;33.30;34.10
14873;DHT22;7528;48.576;19.122;2022-08-01T12:58:19;33.10;34.70
14873;DHT22;7528;48.576;19.122;2022-08-01T13:03:22;33.10;33.30
14873;DHT22;7528;48.576;19.122;2022-08-01T13:08:30;33.00;34.40
14873;DHT22;7528;48.576;19.122;2022-08-01T13:13:42;33.00;34.80
14873;DHT22;7528;48.576;19.122;2022-08-01T13:18:50;32.80;34.10
14873;DHT22;7528;48.576;19.122;2022-08-01T13:24:01;32.60;34.50
14873;DHT22;7528;48.576;19.122;2022-08-01T13:29:08;32.60;34.50
14873;DHT22;7528;48.576;19.122;2022-08-01T13:34:12;32.40;34.80
14873;DHT22;7528;48.576;19.122;2022-08-01T13:39:16;32.40;35.00
14873;DHT22;7528;48.576;19.122;2022-08-01T13:44:38;32.40;35.70
14873;DHT22;7528;48.576;19.122;2022-08-01T13:49:41;32.60;36.70
14873;DHT22;7528;48.576;19.122;2022-08-01T13:54:45;32.70;35.40
14873;DHT22;7528;48.576;19.122;2022-08-01T13:59:49;32.50;36.90
14873;DHT22;7528;48.576;19.122;2022-08-01T14:04:53;32.40;37.60
14873;DHT22;7528;48.576;19.122;2022-08-01T14:09:57;32.40;38.10
14873;DHT22;7528;48.576;19.122;2022-08-01T14:15:02;32.40;37.70
14873;DHT22;7528;48.576;19.122;2022-08-01T14:20:05;32.30;37.90
14873;DHT22;7528;48.576;19.122;2022-08-01T14:25:09;32.30;38.20
14873;DHT22;7528;48.576;19.122;2022-08-01T14:30:14;32.20;38.40
14873;DHT22;7528;48.576;19.122;2022-08-01T14:35:17;32.10;37.50
14873;DHT22;7528;48.576;19.122;2022-08-01T14:40:20;31.90;38.60
14873;DHT22;7528;48.576;19.122;2022-08-01T14:45:25;31.70;37.90
14873;DHT22;7528;48.576;19.122;2022-08-01T14:50:28;31.60;38.40
14873;DHT22;7528;48.576;19.122;2022-08-01T14:55:32;31.50;38.60
14873;DHT22;7528;48.576;19.122;2022-08-01T15:00:36;31.60;39.10
14873;DHT22;7528;48.576;19.122;2022-08-01T15:05:40;31.60;39.10
14873;DHT22;7528;48.576;19.122;2022-08-01T15:10:43;31.50;38.80
14873;DHT22;7528;48.576;19.122;2022-08-01T15:15:47;31.50;39.70
14873;DHT22;7528;48.576;19.122;2022-08-01T15:20:50;31.40;39.40
14873;DHT22;7528;48.576;19.122;2022-08-01T15:25:53;31.40;39.00
14873;DHT22;7528;48.576;19.122;2022-08-01T15:30:58;31.40;40.20
14873;DHT22;7528;48.576;19.122;2022-08-01T15:36:01;31.40;39.50
14873;DHT22;7528;48.576;19.122;2022-08-01T15:41:04;31.40;39.10
14873;DHT22;7528;48.576;19.122;2022-08-01T15:46:09;31.50;38.70
14873;DHT22;7528;48.576;19.122;2022-08-01T15:51:12;31.40;39.30
14873;DHT22;7528;48.576;19.122;2022-08-01T15:56:15;31.50;39.20
14873;DHT22;7528;48.576;19.122;2022-08-01T16:01:20;31.40;39.10
14873;DHT22;7528;48.576;19.122;2022-08-01T16:06:24;31.20;40.10
14873;DHT22;7528;48.576;19.122;2022-08-01T16:11:27;31.10;39.80
14873;DHT22;7528;48.576;19.122;2022-08-01T16:16:31;30.90;39.50
14873;DHT22;7528;48.576;19.122;2022-08-01T16:21:35;30.60;40.80
14873;DHT22;7528;48.576;19.122;2022-08-01T16:26:38;30.50;41.70
14873;DHT22;7528;48.576;19.122;2022-08-01T16:31:42;30.40;44.30
14873;DHT22;7528;48.576;19.122;2022-08-01T16:36:45;30.20;44.40
14873;DHT22;7528;48.576;19.122;2022-08-01T16:41:51;30.10;47.00
14873;DHT22;7528;48.576;19.122;2022-08-01T16:46:55;30.10;47.20
14873;DHT22;7528;48.576;19.122;2022-08-01T16:51:58;29.90;47.40
14873;DHT22;7528;48.576;19.122;2022-08-01T16:57:02;29.70;47.50
14873;DHT22;7528;48.576;19.122;2022-08-01T17:02:07;29.60;46.40
14873;DHT22;7528;48.576;19.122;2022-08-01T17:07:10;29.50;46.70
14873;DHT22;7528;48.576;19.122;2022-08-01T17:12:14;29.40;48.30
14873;DHT22;7528;48.576;19.122;2022-08-01T17:17:19;29.20;48.00
14873;DHT22;7528;48.576;19.122;2022-08-01T17:22:23;29.20;48.30
14873;DHT22;7528;48.576;19.122;2022-08-01T17:27:27;29.10;48.50
14873;DHT22;7528;48.576;19.122;2022-08-01T17:32:31;29.00;48.70
14873;DHT22;7528;48.576;19.122;2022-08-01T17:37:36;29.00;50.00
14873;DHT22;7528;48.576;19.122;2022-08-01T17:42:39;28.80;50.70
14873;DHT22;7528;48.576;19.122;2022-08-01T17:47:44;28.80;50.60
14873;DHT22;7528;48.576;19.122;2022-08-01T17:52:47;28.60;50.30
14873;DHT22;7528;48.576;19.122;2022-08-01T17:57:50;28.60;51.00
14873;DHT22;7528;48.576;19.122;2022-08-01T18:02:55;28.40;51.30
14873;DHT22;7528;48.576;19.122;2022-08-01T18:07:58;28.20;52.60
14873;DHT22;7528;48.576;19.122;2022-08-01T18:13:01;28.10;52.50
14873;DHT22;7528;48.576;19.122;2022-08-01T18:18:06;28.00;53.20
14873;DHT22;7528;48.576;19.122;2022-08-01T18:23:09;27.90;52.10
14873;DHT22;7528;48.576;19.122;2022-08-01T18:28:13;27.80;53.30
14873;DHT22;7528;48.576;19.122;2022-08-01T18:33:17;27.70;52.90
14873;DHT22;7528;48.576;19.122;2022-08-01T18:38:21;27.70;53.90
14873;DHT22;7528;48.576;19.122;2022-08-01T18:43:24;27.50;54.40
14873;DHT22;7528;48.576;19.122;2022-08-01T18:48:29;27.40;55.00
14873;DHT22;7528;48.576;19.122;2022-08-01T18:53:32;27.30;55.40
14873;DHT22;7528;48.576;19.122;2022-08-01T18:58:35;27.20;55.40
14873;DHT22;7528;48.576;19.122;2022-08-01T19:03:40;27.10;55.20
14873;DHT22;7528;48.576;19.122;2022-08-01T19:08:43;27.00;55.80
14873;DHT22;7528;48.576;19.122;2022-08-01T19:13:46;26.90;56.20
14873;DHT22;7528;48.576;19.122;2022-08-01T19:18:51;26.70;57.10
14873;DHT22;7528;48.576;19.122;2022-08-01T19:23:54;26.60;56.80
14873;DHT22;7528;48.576;19.122;2022-08-01T19:29:17;26.50;57.40
14873;DHT22;7528;48.576;19.122;2022-08-01T19:34:23;26.40;57.90
14873;DHT22;7528;48.576;19.122;2022-08-01T19:39:27;26.30;58.60
14873;DHT22;7528;48.576;19.122;2022-08-01T19:44:31;26.30;59.10
14873;DHT22;7528;48.576;19.122;2022-08-01T19:49:35;26.10;59.20
14873;DHT22;7528;48.576;19.122;2022-08-01T19:54:42;26.00;59.40
14873;DHT22;7528;48.576;19.122;2022-08-01T19:59:46;25.90;59.90
14873;DHT22;7528;48.576;19.122;2022-08-01T20:04:51;25.80;60.40
14873;DHT22;7528;48.576;19.122;2022-08-01T20:09:54;25.80;61.20
14873;DHT22;7528;48.576;19.122;2022-08-01T20:14:58;25.70;61.90
14873;DHT22;7528;48.576;19.122;2022-08-01T20:20:03;25.60;62.20
14873;DHT22;7528;48.576;19.122;2022-08-01T20:25:08;25.60;62.20
14873;DHT22;7528;48.576;19.122;2022-08-01T20:30:12;25.40;62.90
14873;DHT22;7528;48.576;19.122;2022-08-01T20:35:17;25.40;63.10
14873;DHT22;7528;48.576;19.122;2022-08-01T20:40:20;25.30;63.30
14873;DHT22;7528;48.576;19.122;2022-08-01T20:45:24;25.20;63.60
14873;DHT22;7528;48.576;19.122;2022-08-01T20:50:29;25.20;63.80
14873;DHT22;7528;48.576;19.122;2022-08-01T20:55:59;25.20;64.00
14873;DHT22;7528;48.576;19.122;2022-08-01T21:01:05;25.10;64.30
14873;DHT22;7528;48.576;19.122;2022-08-01T21:06:12;25.00;64.80
14873;DHT22;7528;48.576;19.122;2022-08-01T21:11:20;25.00;64.10
14873;DHT22;7528;48.576;19.122;2022-08-01T21:16:27;24.90;64.60
14873;DHT22;7528;48.576;19.122;2022-08-01T21:21:35;24.90;64.70
14873;DHT22;7528;48.576;19.122;2022-08-01T21:26:42;24.70;64.90
14873;DHT22;7528;48.576;19.122;2022-08-01T21:31:47;24.70;65.10
14873;DHT22;7528;48.576;19.122;2022-08-01T21:37:14;24.50;64.90
14873;DHT22;7528;48.576;19.122;2022-08-01T21:42:18;24.40;65.30
14873;DHT22;7528;48.576;19.122;2022-08-01T21:47:22;24.40;65.70
14873;DHT22;7528;48.576;19.122;2022-08-01T21:52:33;24.20;65.80
14873;DHT22;7528;48.576;19.122;2022-08-01T21:58:00;24.10;66.50
14873;DHT22;7528;48.576;19.122;2022-08-01T22:03:22;24.10;67.00
14873;DHT22;7528;48.576;19.122;2022-08-01T22:08:31;24.00;67.40
14873;DHT22;7528;48.576;19.122;2022-08-01T22:13:36;23.90;67.70
14873;DHT22;7528;48.576;19.122;2022-08-01T22:18:39;23.80;67.30
14873;DHT22;7528;48.576;19.122;2022-08-01T22:23:44;23.80;67.40
14873;DHT22;7528;48.576;19.122;2022-08-01T22:28:50;23.70;67.70
14873;DHT22;7528;48.576;19.122;2022-08-01T22:33:54;23.60;68.10
14873;DHT22;7528;48.576;19.122;2022-08-01T22:38:58;23.60;68.20
14873;DHT22;7528;48.576;19.122;2022-08-01T22:44:03;23.50;68.70
14873;DHT22;7528;48.576;19.122;2022-08-01T22:49:17;23.40;68.90
14873;DHT22;7528;48.576;19.122;2022-08-01T22:54:29;23.30;69.40
14873;DHT22;7528;48.576;19.122;2022-08-01T22:59:42;23.20;69.80
14873;DHT22;7528;48.576;19.122;2022-08-01T23:04:49;23.20;70.10
14873;DHT22;7528;48.576;19.122;2022-08-01T23:09:58;23.10;70.70
14873;DHT22;7528;48.576;19.122;2022-08-01T23:15:06;23.00;71.30
14873;DHT22;7528;48.576;19.122;2022-08-01T23:20:10;22.90;71.90
14873;DHT22;7528;48.576;19.122;2022-08-01T23:25:16;22.90;71.60
14873;DHT22;7528;48.576;19.122;2022-08-01T23:30:22;22.80;71.70
14873;DHT22;7528;48.576;19.122;2022-08-01T23:35:26;22.80;72.00
14873;DHT22;7528;48.576;19.122;2022-08-01T23:40:33;22.70;72.20
14873;DHT22;7528;48.576;19.122;2022-08-01T23:45:36;22.70;72.50
14873;DHT22;7528;48.576;19.122;2022-08-01T23:50:39;22.60;72.60
14873;DHT22;7528;48.576;19.122;2022-08-01T23:55:44;22.60;73.00
